sensor_id;sensor_type;location;lat;lon;timestamp;temperature;humidity
45761;DHT22;31471;51.040;14.414;2022-10-16T00:01:19;14.50;99.90
45761;DHT22;31471;51.040;14.414;2022-10-16T00:03:46;14.50;99.90
45761;DHT22;31471;51.040;14.414;2022-10-16T00:06:13;14.40;99.90
45761;DHT22;31471;51.040;14.414;2022-10-16T00:08:39;14.50;99.90
45761;DHT22;31471;51.040;14.414;2022-10-16T00:11:11;14.40;99.90
45761;DHT22;31471;51.040;14.414;2022-10-16T00:13:39;14.40;99.90
45761;DHT22;31471;51.040;14.414;2022-10-16T00:16:05;14.40;99.90
45761;DHT22;31471;51.040;14.414;2022-10-16T00:18:31;14.40;99.90
45761;DHT22;31471;51.040;14.414;2022-10-16T00:21:02;14.30;99.90
45761;DHT22;31471;51.040;14.414;2022-10-16T00:23:28;14.40;99.90
45761;DHT22;31471;51.040;14.414;2022-10-16T00:25:55;14.40;99.90
45761;DHT22;31471;51.040;14.414;2022-10-16T00:28:22;14.30;99.90
45761;DHT22;31471;51.040;14.414;2022-10-16T00:30:48;14.30;99.90
45761;DHT22;31471;51.040;14.414;2022-10-16T00:33:13;14.30;99.90
45761;DHT22;31471;51.040;14.414;2022-10-16T00:35:39;14.30;99.90
45761;DHT22;31471;51.040;14.414;2022-10-16T00:38:04;14.20;99.90
45761;DHT22;31471;51.040;14.414;2022-10-16T00:40:30;14.20;99.90
45761;DHT22;31471;51.040;14.414;2022-10-16T00:42:57;14.30;99.90
45761;DHT22;31471;51.040;14.414;2022-10-16T00:45:22;14.20;99.90
45761;DHT22;31471;51.040;14.414;2022-10-16T00:47:49;14.20;99.90
45761;DHT22;31471;51.040;14.414;2022-10-16T00:50:32;14.20;99.90
45761;DHT22;31471;51.040;14.414;2022-10-16T00:52:59;14.20;99.90
45761;DHT22;31471;51.040;14.414;2022-10-16T00:55:26;14.20;99.90
45761;DHT22;31471;51.040;14.414;2022-10-16T00:57:53;14.10;99.90
45761;DHT22;31471;51.040;14.414;2022-10-16T01:00:25;14.10;99.90
45761;DHT22;31471;51.040;14.414;2022-10-16T01:02:56;14.10;99.90
45761;DHT22;31471;51.040;14.414;2022-10-16T01:06:09;14.10;99.90
45761;DHT22;31471;51.040;14.414;2022-10-16T01:08:49;14.10;99.90
45761;DHT22;31471;51.040;14.414;2022-10-16T01:11:37;14.00;99.90
45761;DHT22;31471;51.040;14.414;2022-10-16T01:14:15;14.00;99.90
45761;DHT22;31471;51.040;14.414;2022-10-16T01:16:52;14.00;99.90
45761;DHT22;31471;51.040;14.414;2022-10-16T01:19:36;14.00;99.90
45761;DHT22;31471;51.040;14.414;2022-10-16T01:22:07;14.00;99.90
45761;DHT22;31471;51.040;14.414;2022-10-16T01:24:48;14.00;99.90
45761;DHT22;31471;51.040;14.414;2022-10-16T01:27:28;14.00;99.90
45761;DHT22;31471;51.040;14.414;2022-10-16T01:30:04;14.00;99.90
45761;DHT22;31471;51.040;14.414;2022-10-16T01:35:22;13.90;99.90
45761;DHT22;31471;51.040;14.414;2022-10-16T01:40:20;13.90;99.90
45761;DHT22;31471;51.040;14.414;2022-10-16T01:42:52;13.90;99.90
45761;DHT22;31471;51.040;14.414;2022-10-16T01:45:19;13.90;99.90
45761;DHT22;31471;51.040;14.414;2022-10-16T01:47:46;13.80;99.90
45761;DHT22;31471;51.040;14.414;2022-10-16T01:50:15;13.80;99.90
45761;DHT22;31471;51.040;14.414;2022-10-16T01:52:44;13.90;99.90
45761;DHT22;31471;51.040;14.414;2022-10-16T01:55:12;13.80;99.90
45761;DHT22;31471;51.040;14.414;2022-10-16T01:57:42;13.80;99.90
45761;DHT22;31471;51.040;14.414;2022-10-16T02:00:12;13.80;99.90
45761;DHT22;31471;51.040;14.414;2022-10-16T02:02:40;13.80;99.90
45761;DHT22;31471;51.040;14.414;2022-10-16T02:05:20;13.80;99.90
45761;DHT22;31471;51.040;14.414;2022-10-16T02:07:47;13.80;99.90
45761;DHT22;31471;51.040;14.414;2022-10-16T02:10:13;13.80;99.90
45761;DHT22;31471;51.040;14.414;2022-10-16T02:12:44;13.80;99.90
45761;DHT22;31471;51.040;14.414;2022-10-16T02:15:11;13.70;99.90
45761;DHT22;31471;51.040;14.414;2022-10-16T02:17:36;13.70;99.90
45761;DHT22;31471;51.040;14.414;2022-10-16T02:20:03;13.80;99.90
45761;DHT22;31471;51.040;14.414;2022-10-16T02:22:36;13.80;99.90
45761;DHT22;31471;51.040;14.414;2022-10-16T02:25:17;13.80;99.90
45761;DHT22;31471;51.040;14.414;2022-10-16T02:28:00;13.80;99.90
45761;DHT22;31471;51.040;14.414;2022-10-16T02:30:45;13.80;99.90
45761;DHT22;31471;51.040;14.414;2022-10-16T02:33:15;13.80;99.90
45761;DHT22;31471;51.040;14.414;2022-10-16T02:35:43;13.90;99.90
45761;DHT22;31471;51.040;14.414;2022-10-16T02:38:11;13.90;99.90
45761;DHT22;31471;51.040;14.414;2022-10-16T02:40:37;13.90;99.90
45761;DHT22;31471;51.040;14.414;2022-10-16T02:43:03;13.90;99.90
45761;DHT22;31471;51.040;14.414;2022-10-16T02:45:29;13.90;99.90
45761;DHT22;31471;51.040;14.414;2022-10-16T02:47:55;13.90;99.90
45761;DHT22;31471;51.040;14.414;2022-10-16T02:50:21;13.90;99.90
45761;DHT22;31471;51.040;14.414;2022-10-16T02:52:46;14.00;99.90
45761;DHT22;31471;51.040;14.414;2022-10-16T02:55:12;14.00;99.90
45761;DHT22;31471;51.040;14.414;2022-10-16T02:57:37;14.00;99.90
45761;DHT22;31471;51.040;14.414;2022-10-16T03:00:09;14.00;99.90
45761;DHT22;31471;51.040;14.414;2022-10-16T03:02:35;14.10;99.90
45761;DHT22;31471;51.040;14.414;2022-10-16T03:05:00;14.10;99.90
45761;DHT22;31471;51.040;14.414;2022-10-16T03:07:26;14.10;99.90
45761;DHT22;31471;51.040;14.414;2022-10-16T03:09:52;14.10;99.90
45761;DHT22;31471;51.040;14.414;2022-10-16T03:12:17;14.10;99.90
45761;DHT22;31471;51.040;14.414;2022-10-16T03:14:43;14.10;99.90
45761;DHT22;31471;51.040;14.414;2022-10-16T03:17:08;14.20;99.90
45761;DHT22;31471;51.040;14.414;2022-10-16T03:19:34;14.20;99.90
45761;DHT22;31471;51.040;14.414;2022-10-16T03:22:01;14.20;99.90
45761;DHT22;31471;51.040;14.414;2022-10-16T03:24:27;14.20;99.90
45761;DHT22;31471;51.040;14.414;2022-10-16T03:26:52;14.20;99.90
45761;DHT22;31471;51.040;14.414;2022-10-16T03:29:18;14.30;99.90
45761;DHT22;31471;51.040;14.414;2022-10-16T03:31:44;14.30;99.90
45761;DHT22;31471;51.040;14.414;2022-10-16T03:34:09;14.30;99.90
45761;DHT22;31471;51.040;14.414;2022-10-16T03:36:35;14.30;99.90
45761;DHT22;31471;51.040;14.414;2022-10-16T03:39:01;14.30;99.90
45761;DHT22;31471;51.040;14.414;2022-10-16T03:41:26;14.30;99.90
45761;DHT22;31471;51.040;14.414;2022-10-16T03:43:52;14.30;99.90
45761;DHT22;31471;51.040;14.414;2022-10-16T03:46:17;14.30;99.90
45761;DHT22;31471;51.040;14.414;2022-10-16T03:48:43;14.30;99.90
45761;DHT22;31471;51.040;14.414;2022-10-16T03:51:09;14.30;99.90
45761;DHT22;31471;51.040;14.414;2022-10-16T03:53:34;14.30;99.90
45761;DHT22;31471;51.040;14.414;2022-10-16T03:56:00;14.30;99.90
45761;DHT22;31471;51.040;14.414;2022-10-16T03:58:25;14.30;99.90
45761;DHT22;31471;51.040;14.414;2022-10-16T04:00:51;14.30;99.90
45761;DHT22;31471;51.040;14.414;2022-10-16T04:03:17;14.20;99.90
45761;DHT22;31471;51.040;14.414;2022-10-16T04:05:44;14.20;99.90
45761;DHT22;31471;51.040;14.414;2022-10-16T04:08:10;14.30;99.90
45761;DHT22;31471;51.040;14.414;2022-10-16T04:10:35;14.30;99.90
45761;DHT22;31471;51.040;14.414;2022-10-16T04:13:01;14.20;99.90
45761;DHT22;31471;51.040;14.414;2022-10-16T04:15:26;14.20;99.90
45761;DHT22;31471;51.040;14.414;2022-10-16T04:17:52;14.20;99.90
45761;DHT22;31471;51.040;14.414;2022-10-16T04:20:18;14.10;99.90
45761;DHT22;31471;51.040;14.414;2022-10-16T04:22:44;14.10;99.90
45761;DHT22;31471;51.040;14.414;2022-10-16T04:25:10;14.10;99.90
45761;DHT22;31471;51.040;14.414;2022-10-16T04:27:37;14.10;99.90
45761;DHT22;31471;51.040;14.414;2022-10-16T04:30:03;14.10;99.90
45761;DHT22;31471;51.040;14.414;2022-10-16T04:32:29;14.00;99.90
45761;DHT22;31471;51.040;14.414;2022-10-16T04:34:54;14.10;99.90
45761;DHT22;31471;51.040;14.414;2022-10-16T04:37:26;14.00;99.90
45761;DHT22;31471;51.040;14.414;2022-10-16T04:39:53;14.10;99.90
45761;DHT22;31471;51.040;14.414;2022-10-16T04:42:19;14.10;99.90
45761;DHT22;31471;51.040;14.414;2022-10-16T04:44:45;14.00;99.90
45761;DHT22;31471;51.040;14.414;2022-10-16T04:47:10;14.10;99.90
45761;DHT22;31471;51.040;14.414;2022-10-16T04:49:36;14.10;99.90
45761;DHT22;31471;51.040;14.414;2022-10-16T04:52:02;14.00;99.90
45761;DHT22;31471;51.040;14.414;2022-10-16T04:54:28;14.10;99.90
45761;DHT22;31471;51.040;14.414;2022-10-16T04:56:54;14.00;99.90
45761;DHT22;31471;51.040;14.414;2022-10-16T04:59:20;14.00;99.90
45761;DHT22;31471;51.040;14.414;2022-10-16T05:01:45;14.00;99.90
45761;DHT22;31471;51.040;14.414;2022-10-16T05:04:11;14.00;99.90
45761;DHT22;31471;51.040;14.414;2022-10-16T05:06:37;14.00;99.90
45761;DHT22;31471;51.040;14.414;2022-10-16T05:09:04;14.00;99.90
45761;DHT22;31471;51.040;14.414;2022-10-16T05:11:30;14.00;99.90
45761;DHT22;31471;51.040;14.414;2022-10-16T05:13:56;14.00;99.90
45761;DHT22;31471;51.040;14.414;2022-10-16T05:16:22;14.00;99.90
45761;DHT22;31471;51.040;14.414;2022-10-16T05:18:47;14.00;99.90
45761;DHT22;31471;51.040;14.414;2022-10-16T05:21:13;14.00;99.90
45761;DHT22;31471;51.040;14.414;2022-10-16T05:23:39;14.00;99.90
45761;DHT22;31471;51.040;14.414;2022-10-16T05:26:04;14.00;99.90
45761;DHT22;31471;51.040;14.414;2022-10-16T05:28:30;13.90;99.90
45761;DHT22;31471;51.040;14.414;2022-10-16T05:30:57;14.00;99.90
45761;DHT22;31471;51.040;14.414;2022-10-16T05:33:25;13.90;99.90
45761;DHT22;31471;51.040;14.414;2022-10-16T05:35:51;14.00;99.90
45761;DHT22;31471;51.040;14.414;2022-10-16T05:38:17;14.00;99.90
45761;DHT22;31471;51.040;14.414;2022-10-16T05:40:43;13.90;99.90
45761;DHT22;31471;51.040;14.414;2022-10-16T05:43:15;13.90;99.90
45761;DHT22;31471;51.040;14.414;2022-10-16T05:45:40;13.90;99.90
45761;DHT22;31471;51.040;14.414;2022-10-16T05:48:06;14.00;99.90
45761;DHT22;31471;51.040;14.414;2022-10-16T05:50:32;13.90;99.90
45761;DHT22;31471;51.040;14.414;2022-10-16T05:52:57;14.00;99.90
45761;DHT22;31471;51.040;14.414;2022-10-16T05:55:23;14.00;99.90
45761;DHT22;31471;51.040;14.414;2022-10-16T05:57:48;14.00;99.90
45761;DHT22;31471;51.040;14.414;2022-10-16T06:00:14;14.00;99.90
45761;DHT22;31471;51.040;14.414;2022-10-16T06:02:39;14.10;99.90
45761;DHT22;31471;51.040;14.414;2022-10-16T06:05:05;14.10;99.90
45761;DHT22;31471;51.040;14.414;2022-10-16T06:07:34;14.10;99.90
45761;DHT22;31471;51.040;14.414;2022-10-16T06:10:00;14.10;99.90
45761;DHT22;31471;51.040;14.414;2022-10-16T06:12:26;14.20;99.90
45761;DHT22;31471;51.040;14.414;2022-10-16T06:14:52;14.20;99.90
45761;DHT22;31471;51.040;14.414;2022-10-16T06:17:18;14.20;99.90
45761;DHT22;31471;51.040;14.414;2022-10-16T06:19:43;14.20;99.90
45761;DHT22;31471;51.040;14.414;2022-10-16T06:22:09;14.20;99.90
45761;DHT22;31471;51.040;14.414;2022-10-16T06:24:35;14.30;99.90
45761;DHT22;31471;51.040;14.414;2022-10-16T06:27:00;14.30;99.90
45761;DHT22;31471;51.040;14.414;2022-10-16T06:29:26;14.30;99.90
45761;DHT22;31471;51.040;14.414;2022-10-16T06:31:52;14.40;99.90
45761;DHT22;31471;51.040;14.414;2022-10-16T06:34:18;14.40;99.90
45761;DHT22;31471;51.040;14.414;2022-10-16T06:36:43;14.40;99.90
45761;DHT22;31471;51.040;14.414;2022-10-16T06:39:09;14.40;99.90
45761;DHT22;31471;51.040;14.414;2022-10-16T06:41:35;14.40;99.90
45761;DHT22;31471;51.040;14.414;2022-10-16T06:44:13;14.50;99.90
45761;DHT22;31471;51.040;14.414;2022-10-16T06:46:39;14.60;99.90
45761;DHT22;31471;51.040;14.414;2022-10-16T06:49:05;14.60;99.90
45761;DHT22;31471;51.040;14.414;2022-10-16T06:51:30;14.70;99.90
45761;DHT22;31471;51.040;14.414;2022-10-16T06:53:59;14.70;99.90
45761;DHT22;31471;51.040;14.414;2022-10-16T06:56:26;14.80;99.90
45761;DHT22;31471;51.040;14.414;2022-10-16T06:58:53;14.90;99.90
45761;DHT22;31471;51.040;14.414;2022-10-16T07:01:20;14.90;99.90
45761;DHT22;31471;51.040;14.414;2022-10-16T07:03:47;15.00;99.90
45761;DHT22;31471;51.040;14.414;2022-10-16T07:06:15;15.00;99.90
45761;DHT22;31471;51.040;14.414;2022-10-16T07:08:42;15.00;99.90
45761;DHT22;31471;51.040;14.414;2022-10-16T07:11:11;15.10;99.90
45761;DHT22;31471;51.040;14.414;2022-10-16T07:13:38;15.20;99.90
45761;DHT22;31471;51.040;14.414;2022-10-16T07:16:15;15.20;99.90
45761;DHT22;31471;51.040;14.414;2022-10-16T07:18:42;15.30;99.90
45761;DHT22;31471;51.040;14.414;2022-10-16T07:21:10;15.30;99.90
45761;DHT22;31471;51.040;14.414;2022-10-16T07:23:36;15.30;99.90
45761;DHT22;31471;51.040;14.414;2022-10-16T07:26:02;15.40;99.90
45761;DHT22;31471;51.040;14.414;2022-10-16T07:28:28;15.50;99.90
45761;DHT22;31471;51.040;14.414;2022-10-16T07:30:54;15.60;99.90
45761;DHT22;31471;51.040;14.414;2022-10-16T07:33:20;15.60;99.90
45761;DHT22;31471;51.040;14.414;2022-10-16T07:35:54;15.60;99.90
45761;DHT22;31471;51.040;14.414;2022-10-16T07:38:20;15.70;99.90
45761;DHT22;31471;51.040;14.414;2022-10-16T07:40:47;15.80;99.90
45761;DHT22;31471;51.040;14.414;2022-10-16T07:43:13;15.90;99.90
45761;DHT22;31471;51.040;14.414;2022-10-16T07:45:47;15.90;99.90
45761;DHT22;31471;51.040;14.414;2022-10-16T07:48:14;16.00;99.90
45761;DHT22;31471;51.040;14.414;2022-10-16T07:50:39;16.00;99.90
45761;DHT22;31471;51.040;14.414;2022-10-16T07:53:05;16.10;99.90
45761;DHT22;31471;51.040;14.414;2022-10-16T07:55:31;16.10;99.90
45761;DHT22;31471;51.040;14.414;2022-10-16T07:57:56;16.20;99.90
45761;DHT22;31471;51.040;14.414;2022-10-16T08:00:22;16.20;99.90
45761;DHT22;31471;51.040;14.414;2022-10-16T08:02:47;16.30;99.90
45761;DHT22;31471;51.040;14.414;2022-10-16T08:05:13;16.30;99.90
45761;DHT22;31471;51.040;14.414;2022-10-16T08:07:39;16.40;99.90
45761;DHT22;31471;51.040;14.414;2022-10-16T08:10:04;16.50;99.90
45761;DHT22;31471;51.040;14.414;2022-10-16T08:12:30;16.50;99.90
45761;DHT22;31471;51.040;14.414;2022-10-16T08:14:56;16.60;99.90
45761;DHT22;31471;51.040;14.414;2022-10-16T08:17:21;16.70;99.90
45761;DHT22;31471;51.040;14.414;2022-10-16T08:19:47;16.70;99.90
45761;DHT22;31471;51.040;14.414;2022-10-16T08:22:13;16.80;99.90
45761;DHT22;31471;51.040;14.414;2022-10-16T08:24:39;16.90;99.90
45761;DHT22;31471;51.040;14.414;2022-10-16T08:27:04;16.90;99.90
45761;DHT22;31471;51.040;14.414;2022-10-16T08:29:30;17.10;99.90
45761;DHT22;31471;51.040;14.414;2022-10-16T08:31:56;17.10;99.90
45761;DHT22;31471;51.040;14.414;2022-10-16T08:34:21;17.10;99.90
45761;DHT22;31471;51.040;14.414;2022-10-16T08:36:47;17.40;99.90
45761;DHT22;31471;51.040;14.414;2022-10-16T08:39:12;17.60;99.90
45761;DHT22;31471;51.040;14.414;2022-10-16T08:45:12;17.70;99.90
45761;DHT22;31471;51.040;14.414;2022-10-16T08:47:49;17.80;99.90
45761;DHT22;31471;51.040;14.414;2022-10-16T08:50:26;17.70;99.90
45761;DHT22;31471;51.040;14.414;2022-10-16T08:52:53;17.50;99.90
45761;DHT22;31471;51.040;14.414;2022-10-16T08:57:45;17.50;99.90
45761;DHT22;31471;51.040;14.414;2022-10-16T09:00:21;17.40;99.90
45761;DHT22;31471;51.040;14.414;2022-10-16T09:08:25;17.30;99.90
45761;DHT22;31471;51.040;14.414;2022-10-16T09:11:25;17.20;99.90
45761;DHT22;31471;51.040;14.414;2022-10-16T09:14:26;17.20;99.90
45761;DHT22;31471;51.040;14.414;2022-10-16T09:22:47;17.50;99.90
45761;DHT22;31471;51.040;14.414;2022-10-16T09:25:17;17.50;99.90
45761;DHT22;31471;51.040;14.414;2022-10-16T09:27:47;17.50;99.90
45761;DHT22;31471;51.040;14.414;2022-10-16T09:30:15;17.40;99.90
45761;DHT22;31471;51.040;14.414;2022-10-16T09:32:42;17.50;99.90
45761;DHT22;31471;51.040;14.414;2022-10-16T09:35:15;17.60;99.90
45761;DHT22;31471;51.040;14.414;2022-10-16T09:37:44;17.50;99.90
45761;DHT22;31471;51.040;14.414;2022-10-16T09:40:28;17.60;99.90
45761;DHT22;31471;51.040;14.414;2022-10-16T09:43:25;17.60;99.90
45761;DHT22;31471;51.040;14.414;2022-10-16T09:46:02;17.70;99.90
45761;DHT22;31471;51.040;14.414;2022-10-16T09:48:43;17.80;99.90
45761;DHT22;31471;51.040;14.414;2022-10-16T09:51:32;17.90;99.90
45761;DHT22;31471;51.040;14.414;2022-10-16T09:54:13;18.00;99.90
45761;DHT22;31471;51.040;14.414;2022-10-16T09:56:39;18.00;99.90
45761;DHT22;31471;51.040;14.414;2022-10-16T09:59:15;18.10;99.90
45761;DHT22;31471;51.040;14.414;2022-10-16T10:01:52;18.20;99.90
45761;DHT22;31471;51.040;14.414;2022-10-16T10:04:23;18.00;99.90
45761;DHT22;31471;51.040;14.414;2022-10-16T10:06:54;17.90;99.90
45761;DHT22;31471;51.040;14.414;2022-10-16T10:09:29;17.90;99.90
45761;DHT22;31471;51.040;14.414;2022-10-16T10:12:01;18.00;99.90
45761;DHT22;31471;51.040;14.414;2022-10-16T10:14:42;18.00;99.90
45761;DHT22;31471;51.040;14.414;2022-10-16T10:17:10;18.20;99.90
45761;DHT22;31471;51.040;14.414;2022-10-16T10:19:46;18.30;99.90
45761;DHT22;31471;51.040;14.414;2022-10-16T10:22:32;18.40;99.90
45761;DHT22;31471;51.040;14.414;2022-10-16T10:28:09;18.50;99.90
45761;DHT22;31471;51.040;14.414;2022-10-16T10:31:07;18.50;99.90
45761;DHT22;31471;51.040;14.414;2022-10-16T10:36:30;18.60;99.90
45761;DHT22;31471;51.040;14.414;2022-10-16T10:46:35;18.70;99.90
45761;DHT22;31471;51.040;14.414;2022-10-16T10:52:33;18.70;99.90
45761;DHT22;31471;51.040;14.414;2022-10-16T11:00:30;18.90;99.90
45761;DHT22;31471;51.040;14.414;2022-10-16T11:03:16;18.90;99.90
45761;DHT22;31471;51.040;14.414;2022-10-16T11:05:50;19.00;99.90
45761;DHT22;31471;51.040;14.414;2022-10-16T11:08:29;19.00;99.90
45761;DHT22;31471;51.040;14.414;2022-10-16T11:11:01;19.10;99.90
45761;DHT22;31471;51.040;14.414;2022-10-16T11:16:20;19.40;99.90
45761;DHT22;31471;51.040;14.414;2022-10-16T11:19:03;19.40;99.90
45761;DHT22;31471;51.040;14.414;2022-10-16T11:21:36;19.60;99.90
45761;DHT22;31471;51.040;14.414;2022-10-16T11:24:19;19.80;99.90
45761;DHT22;31471;51.040;14.414;2022-10-16T11:26:46;19.80;99.90
45761;DHT22;31471;51.040;14.414;2022-10-16T11:29:27;19.90;99.90
45761;DHT22;31471;51.040;14.414;2022-10-16T11:32:05;20.00;99.90
45761;DHT22;31471;51.040;14.414;2022-10-16T11:34:36;20.00;99.90
45761;DHT22;31471;51.040;14.414;2022-10-16T11:37:35;19.80;99.90
45761;DHT22;31471;51.040;14.414;2022-10-16T11:40:21;19.90;99.90
45761;DHT22;31471;51.040;14.414;2022-10-16T11:42:50;19.80;99.90
45761;DHT22;31471;51.040;14.414;2022-10-16T11:47:54;19.80;99.90
45761;DHT22;31471;51.040;14.414;2022-10-16T11:50:29;19.90;99.90
45761;DHT22;31471;51.040;14.414;2022-10-16T11:55:36;19.90;99.90
45761;DHT22;31471;51.040;14.414;2022-10-16T12:03:21;20.00;99.90
45761;DHT22;31471;51.040;14.414;2022-10-16T12:06:14;20.20;99.90
45761;DHT22;31471;51.040;14.414;2022-10-16T12:08:46;20.20;99.90
45761;DHT22;31471;51.040;14.414;2022-10-16T12:11:37;20.30;99.90
45761;DHT22;31471;51.040;14.414;2022-10-16T12:16:54;20.50;99.90
45761;DHT22;31471;51.040;14.414;2022-10-16T12:19:21;20.50;99.90
45761;DHT22;31471;51.040;14.414;2022-10-16T12:21:48;20.50;99.90
45761;DHT22;31471;51.040;14.414;2022-10-16T12:24:43;20.70;99.90
45761;DHT22;31471;51.040;14.414;2022-10-16T12:27:30;20.70;99.90
45761;DHT22;31471;51.040;14.414;2022-10-16T12:30:01;20.70;99.90
45761;DHT22;31471;51.040;14.414;2022-10-16T12:32:33;20.70;99.90
45761;DHT22;31471;51.040;14.414;2022-10-16T12:35:00;20.80;99.90
45761;DHT22;31471;51.040;14.414;2022-10-16T12:37:31;20.70;99.90
45761;DHT22;31471;51.040;14.414;2022-10-16T12:39:57;20.70;99.90
45761;DHT22;31471;51.040;14.414;2022-10-16T12:42:33;20.60;99.90
45761;DHT22;31471;51.040;14.414;2022-10-16T12:44:59;20.80;99.90
45761;DHT22;31471;51.040;14.414;2022-10-16T12:49:56;21.00;99.90
45761;DHT22;31471;51.040;14.414;2022-10-16T12:54:59;21.10;99.90
45761;DHT22;31471;51.040;14.414;2022-10-16T13:00:28;21.30;99.90
45761;DHT22;31471;51.040;14.414;2022-10-16T13:03:32;21.50;99.90
45761;DHT22;31471;51.040;14.414;2022-10-16T13:06:15;21.40;99.90
45761;DHT22;31471;51.040;14.414;2022-10-16T13:09:12;21.50;99.90
45761;DHT22;31471;51.040;14.414;2022-10-16T13:14:32;21.20;99.90
45761;DHT22;31471;51.040;14.414;2022-10-16T13:20:21;21.20;99.90
45761;DHT22;31471;51.040;14.414;2022-10-16T13:22:55;21.00;99.90
45761;DHT22;31471;51.040;14.414;2022-10-16T13:26:00;21.10;99.90
45761;DHT22;31471;51.040;14.414;2022-10-16T13:28:31;21.00;99.90
45761;DHT22;31471;51.040;14.414;2022-10-16T13:30:59;20.90;99.90
45761;DHT22;31471;51.040;14.414;2022-10-16T13:33:37;21.00;99.90
45761;DHT22;31471;51.040;14.414;2022-10-16T13:36:04;21.10;99.90
45761;DHT22;31471;51.040;14.414;2022-10-16T13:38:32;21.10;99.90
45761;DHT22;31471;51.040;14.414;2022-10-16T13:41:00;21.10;99.90
45761;DHT22;31471;51.040;14.414;2022-10-16T13:43:32;21.00;99.90
45761;DHT22;31471;51.040;14.414;2022-10-16T13:46:05;21.00;99.90
45761;DHT22;31471;51.040;14.414;2022-10-16T13:48:33;21.10;99.90
45761;DHT22;31471;51.040;14.414;2022-10-16T13:51:14;21.00;99.90
45761;DHT22;31471;51.040;14.414;2022-10-16T13:53:40;20.90;99.90
45761;DHT22;31471;51.040;14.414;2022-10-16T13:56:11;21.00;99.90
45761;DHT22;31471;51.040;14.414;2022-10-16T13:58:36;21.00;99.90
45761;DHT22;31471;51.040;14.414;2022-10-16T14:01:05;21.00;99.90
45761;DHT22;31471;51.040;14.414;2022-10-16T14:03:32;20.90;99.90
45761;DHT22;31471;51.040;14.414;2022-10-16T14:06:04;20.80;99.90
45761;DHT22;31471;51.040;14.414;2022-10-16T14:08:31;20.80;99.90
45761;DHT22;31471;51.040;14.414;2022-10-16T14:10:59;20.60;99.90
45761;DHT22;31471;51.040;14.414;2022-10-16T14:13:36;20.60;99.90
45761;DHT22;31471;51.040;14.414;2022-10-16T14:16:06;20.50;99.90
45761;DHT22;31471;51.040;14.414;2022-10-16T14:18:33;20.30;99.90
45761;DHT22;31471;51.040;14.414;2022-10-16T14:21:13;20.20;99.90
45761;DHT22;31471;51.040;14.414;2022-10-16T14:23:40;20.10;99.90
45761;DHT22;31471;51.040;14.414;2022-10-16T14:28:36;20.00;99.90
45761;DHT22;31471;51.040;14.414;2022-10-16T14:31:17;20.00;99.90
45761;DHT22;31471;51.040;14.414;2022-10-16T14:33:48;19.90;99.90
45761;DHT22;31471;51.040;14.414;2022-10-16T14:36:14;19.80;99.90
45761;DHT22;31471;51.040;14.414;2022-10-16T14:38:49;19.80;99.90
45761;DHT22;31471;51.040;14.414;2022-10-16T14:41:23;19.80;99.90
45761;DHT22;31471;51.040;14.414;2022-10-16T14:43:54;19.70;99.90
45761;DHT22;31471;51.040;14.414;2022-10-16T14:46:34;19.70;99.90
45761;DHT22;31471;51.040;14.414;2022-10-16T14:49:19;19.60;99.90
45761;DHT22;31471;51.040;14.414;2022-10-16T14:51:46;19.50;99.90
45761;DHT22;31471;51.040;14.414;2022-10-16T14:54:14;19.50;99.90
45761;DHT22;31471;51.040;14.414;2022-10-16T14:56:55;19.50;99.90
45761;DHT22;31471;51.040;14.414;2022-10-16T14:59:39;19.50;99.90
45761;DHT22;31471;51.040;14.414;2022-10-16T15:04:48;19.30;99.90
45761;DHT22;31471;51.040;14.414;2022-10-16T15:07:14;19.30;99.90
45761;DHT22;31471;51.040;14.414;2022-10-16T15:09:39;19.20;99.90
45761;DHT22;31471;51.040;14.414;2022-10-16T15:12:05;19.10;99.90
45761;DHT22;31471;51.040;14.414;2022-10-16T15:14:31;19.10;99.90
45761;DHT22;31471;51.040;14.414;2022-10-16T15:16:56;19.00;99.90
45761;DHT22;31471;51.040;14.414;2022-10-16T15:19:22;19.00;99.90
45761;DHT22;31471;51.040;14.414;2022-10-16T15:21:47;18.90;99.90
45761;DHT22;31471;51.040;14.414;2022-10-16T15:24:15;18.90;99.90
45761;DHT22;31471;51.040;14.414;2022-10-16T15:26:40;18.70;99.90
45761;DHT22;31471;51.040;14.414;2022-10-16T15:29:06;18.70;99.90
45761;DHT22;31471;51.040;14.414;2022-10-16T15:31:32;18.70;99.90
45761;DHT22;31471;51.040;14.414;2022-10-16T15:33:58;18.70;99.90
45761;DHT22;31471;51.040;14.414;2022-10-16T15:36:30;18.70;99.90
45761;DHT22;31471;51.040;14.414;2022-10-16T15:38:56;18.70;99.90
45761;DHT22;31471;51.040;14.414;2022-10-16T15:41:22;18.60;99.90
45761;DHT22;31471;51.040;14.414;2022-10-16T15:43:48;18.60;99.90
45761;DHT22;31471;51.040;14.414;2022-10-16T15:46:20;18.60;99.90
45761;DHT22;31471;51.040;14.414;2022-10-16T15:48:47;18.60;99.90
45761;DHT22;31471;51.040;14.414;2022-10-16T15:51:13;18.50;99.90
45761;DHT22;31471;51.040;14.414;2022-10-16T15:53:39;18.40;99.90
45761;DHT22;31471;51.040;14.414;2022-10-16T15:56:06;18.20;99.90
45761;DHT22;31471;51.040;14.414;2022-10-16T15:58:33;18.30;99.90
45761;DHT22;31471;51.040;14.414;2022-10-16T16:00:59;18.30;99.90
45761;DHT22;31471;51.040;14.414;2022-10-16T16:03:27;18.30;99.90
45761;DHT22;31471;51.040;14.414;2022-10-16T16:05:53;18.30;99.90
45761;DHT22;31471;51.040;14.414;2022-10-16T16:08:19;18.30;99.90
45761;DHT22;31471;51.040;14.414;2022-10-16T16:10:45;18.20;99.90
45761;DHT22;31471;51.040;14.414;2022-10-16T16:13:11;18.10;99.90
45761;DHT22;31471;51.040;14.414;2022-10-16T16:15:39;17.90;99.90
45761;DHT22;31471;51.040;14.414;2022-10-16T16:18:06;17.80;99.90
45761;DHT22;31471;51.040;14.414;2022-10-16T16:20:31;17.90;99.90
45761;DHT22;31471;51.040;14.414;2022-10-16T16:22:57;17.90;99.90
45761;DHT22;31471;51.040;14.414;2022-10-16T16:25:23;17.80;99.90
45761;DHT22;31471;51.040;14.414;2022-10-16T16:27:48;17.90;99.90
45761;DHT22;31471;51.040;14.414;2022-10-16T16:30:14;17.90;99.90
45761;DHT22;31471;51.040;14.414;2022-10-16T16:32:39;17.80;99.90
45761;DHT22;31471;51.040;14.414;2022-10-16T16:35:05;17.70;99.90
45761;DHT22;31471;51.040;14.414;2022-10-16T16:37:31;17.70;99.90
45761;DHT22;31471;51.040;14.414;2022-10-16T16:39:57;17.70;99.90
45761;DHT22;31471;51.040;14.414;2022-10-16T16:42:27;17.60;99.90
45761;DHT22;31471;51.040;14.414;2022-10-16T16:44:53;17.60;99.90
45761;DHT22;31471;51.040;14.414;2022-10-16T16:47:19;17.40;99.90
45761;DHT22;31471;51.040;14.414;2022-10-16T16:49:45;17.40;99.90
45761;DHT22;31471;51.040;14.414;2022-10-16T16:52:12;17.30;99.90